KSNS/SNS METAR and TAF weather

Enter ICAO airport designator
Station Type Date Time Source
KSNS METAR 2019/06/18 12:53 UTC NOAA

KSNS 181253Z 00000KT 10SM OVC007 16/12 A2993 RMK AO2 SLP145 T01610117


Station Type Date Time Source
KSNS Decoded METAR 2019/06/18 12:53 UTC NOAA

SALINAS MUNICIPAL AIRPORT, CA, United States (KSNS) 36-40N 121-36W 30M
Jun 18, 2019 - 08:53 AM EDT / 2019.06.18 1253 UTC
Wind: Calm:0
Visibility: 10 mile(s):0
Sky conditions: overcast
Temperature: 61.0 F (16.1 C)
Dew Point: 53.1 F (11.7 C)
Relative Humidity: 75%
Pressure (altimeter): 29.93 in. Hg (1013 hPa)
ob: KSNS 181253Z 00000KT 10SM OVC007 16/12 A2993 RMK AO2 SLP145 T01610117
cycle: 13

Station Type Date Time Source
KSNS TAF 2019/06/18 12:34 UTC NOAA

TAF KSNS 181132Z 1812/1912 VRB04KT P6SM OVC008
TEMPO 1813/1816 OVC006
FM181830 30008KT P6SM BKN010
FM182200 31012KT P6SM SKC
FM190300 32006KT P6SM OVC007
FM191100 VRB03KT P6SM OVC005

Example: see airport list